sensor_id;sensor_type;location;lat;lon;timestamp;P1;durP1;ratioP1;P2;durP2;ratioP2
60100;SDS011;45978;53.646;55.930;2022-09-03T00:00:41;29.65;;;19.70;;
60100;SDS011;45978;53.646;55.930;2022-09-03T00:01:49;27.63;;;18.88;;
60100;SDS011;45978;53.646;55.930;2022-09-03T00:05:42;29.70;;;18.63;;
60100;SDS011;45978;53.646;55.930;2022-09-03T00:06:54;28.73;;;19.23;;
60100;SDS011;45978;53.646;55.930;2022-09-03T00:10:50;28.92;;;19.45;;
60100;SDS011;45978;53.646;55.930;2022-09-03T00:13:16;29.70;;;18.75;;
60100;SDS011;45978;53.646;55.930;2022-09-03T00:14:45;28.70;;;19.17;;
60100;SDS011;45978;53.646;55.930;2022-09-03T00:15:51;31.15;;;19.02;;
60100;SDS011;45978;53.646;55.930;2022-09-03T00:16:57;28.23;;;19.35;;
60100;SDS011;45978;53.646;55.930;2022-09-03T00:18:46;28.75;;;18.63;;
60100;SDS011;45978;53.646;55.930;2022-09-03T00:19:32;30.40;;;18.95;;
60100;SDS011;45978;53.646;55.930;2022-09-03T00:20:48;29.35;;;17.90;;
60100;SDS011;45978;53.646;55.930;2022-09-03T00:22:16;29.70;;;18.25;;
60100;SDS011;45978;53.646;55.930;2022-09-03T00:23:21;28.08;;;18.65;;
60100;SDS011;45978;53.646;55.930;2022-09-03T00:24:25;31.33;;;19.33;;
60100;SDS011;45978;53.646;55.930;2022-09-03T00:25:40;26.05;;;19.10;;
60100;SDS011;45978;53.646;55.930;2022-09-03T00:26:49;26.95;;;18.55;;
60100;SDS011;45978;53.646;55.930;2022-09-03T00:27:56;28.13;;;20.17;;
60100;SDS011;45978;53.646;55.930;2022-09-03T00:29:06;30.90;;;19.85;;
60100;SDS011;45978;53.646;55.930;2022-09-03T00:30:13;27.42;;;18.23;;
60100;SDS011;45978;53.646;55.930;2022-09-03T00:31:24;29.52;;;19.17;;
60100;SDS011;45978;53.646;55.930;2022-09-03T00:32:53;30.13;;;19.27;;
60100;SDS011;45978;53.646;55.930;2022-09-03T00:34:01;27.80;;;18.65;;
60100;SDS011;45978;53.646;55.930;2022-09-03T00:35:11;23.83;;;18.90;;
60100;SDS011;45978;53.646;55.930;2022-09-03T00:36:19;31.25;;;20.05;;
60100;SDS011;45978;53.646;55.930;2022-09-03T00:37:25;34.90;;;19.38;;
60100;SDS011;45978;53.646;55.930;2022-09-03T00:38:28;29.52;;;19.90;;
60100;SDS011;45978;53.646;55.930;2022-09-03T00:39:30;27.13;;;18.92;;
60100;SDS011;45978;53.646;55.930;2022-09-03T00:42:11;30.67;;;19.88;;
60100;SDS011;45978;53.646;55.930;2022-09-03T00:47:38;29.98;;;19.35;;
60100;SDS011;45978;53.646;55.930;2022-09-03T00:48:47;31.55;;;18.60;;
60100;SDS011;45978;53.646;55.930;2022-09-03T00:51:53;28.77;;;18.90;;
60100;SDS011;45978;53.646;55.930;2022-09-03T00:54:28;27.23;;;18.98;;
60100;SDS011;45978;53.646;55.930;2022-09-03T01:04:34;29.83;;;20.45;;
60100;SDS011;45978;53.646;55.930;2022-09-03T01:07:22;31.17;;;19.70;;
60100;SDS011;45978;53.646;55.930;2022-09-03T01:12:32;32.78;;;20.17;;
60100;SDS011;45978;53.646;55.930;2022-09-03T01:13:42;32.42;;;21.00;;
60100;SDS011;45978;53.646;55.930;2022-09-03T01:16:03;30.42;;;19.65;;
60100;SDS011;45978;53.646;55.930;2022-09-03T01:18:52;29.58;;;19.65;;
60100;SDS011;45978;53.646;55.930;2022-09-03T01:23:12;33.75;;;19.88;;
60100;SDS011;45978;53.646;55.930;2022-09-03T01:24:27;30.98;;;19.52;;
60100;SDS011;45978;53.646;55.930;2022-09-03T01:26:48;32.53;;;20.38;;
60100;SDS011;45978;53.646;55.930;2022-09-03T01:30:22;31.42;;;19.55;;
60100;SDS011;45978;53.646;55.930;2022-09-03T01:35:47;33.65;;;21.60;;
60100;SDS011;45978;53.646;55.930;2022-09-03T01:38:25;27.58;;;18.65;;
60100;SDS011;45978;53.646;55.930;2022-09-03T01:39:50;32.72;;;20.02;;
60100;SDS011;45978;53.646;55.930;2022-09-03T01:41:25;32.17;;;19.75;;
60100;SDS011;45978;53.646;55.930;2022-09-03T01:45:53;37.03;;;20.10;;
60100;SDS011;45978;53.646;55.930;2022-09-03T01:47:03;35.28;;;20.40;;
60100;SDS011;45978;53.646;55.930;2022-09-03T01:52:13;40.20;;;20.48;;
60100;SDS011;45978;53.646;55.930;2022-09-03T01:53:27;41.92;;;20.65;;
60100;SDS011;45978;53.646;55.930;2022-09-03T01:54:52;52.20;;;21.33;;
60100;SDS011;45978;53.646;55.930;2022-09-03T01:58:04;64.72;;;21.50;;
60100;SDS011;45978;53.646;55.930;2022-09-03T02:00:33;38.92;;;20.63;;
60100;SDS011;45978;53.646;55.930;2022-09-03T02:01:40;48.83;;;21.23;;
60100;SDS011;45978;53.646;55.930;2022-09-03T02:02:47;33.30;;;20.73;;
60100;SDS011;45978;53.646;55.930;2022-09-03T02:03:53;33.80;;;19.83;;
60100;SDS011;45978;53.646;55.930;2022-09-03T02:06:04;34.08;;;19.85;;
60100;SDS011;45978;53.646;55.930;2022-09-03T02:07:07;38.22;;;19.83;;
60100;SDS011;45978;53.646;55.930;2022-09-03T02:08:08;32.65;;;20.35;;
60100;SDS011;45978;53.646;55.930;2022-09-03T02:09:10;37.05;;;18.95;;
60100;SDS011;45978;53.646;55.930;2022-09-03T02:10:19;55.72;;;21.23;;
60100;SDS011;45978;53.646;55.930;2022-09-03T02:11:24;39.60;;;20.23;;
60100;SDS011;45978;53.646;55.930;2022-09-03T02:12:27;57.67;;;20.83;;
60100;SDS011;45978;53.646;55.930;2022-09-03T02:13:40;31.60;;;18.38;;
60100;SDS011;45978;53.646;55.930;2022-09-03T02:14:44;35.08;;;20.30;;
60100;SDS011;45978;53.646;55.930;2022-09-03T02:15:47;42.05;;;20.48;;
60100;SDS011;45978;53.646;55.930;2022-09-03T02:16:50;34.63;;;19.13;;
60100;SDS011;45978;53.646;55.930;2022-09-03T02:17:51;36.08;;;18.38;;
60100;SDS011;45978;53.646;55.930;2022-09-03T02:19:00;37.92;;;20.05;;
60100;SDS011;45978;53.646;55.930;2022-09-03T02:20:05;35.55;;;18.33;;
60100;SDS011;45978;53.646;55.930;2022-09-03T02:21:12;42.08;;;24.15;;
60100;SDS011;45978;53.646;55.930;2022-09-03T02:22:17;34.35;;;19.13;;
60100;SDS011;45978;53.646;55.930;2022-09-03T02:23:18;33.63;;;18.38;;
60100;SDS011;45978;53.646;55.930;2022-09-03T02:24:20;30.65;;;18.73;;
60100;SDS011;45978;53.646;55.930;2022-09-03T02:25:24;48.45;;;18.83;;
60100;SDS011;45978;53.646;55.930;2022-09-03T02:26:30;46.17;;;18.70;;
60100;SDS011;45978;53.646;55.930;2022-09-03T02:27:31;32.65;;;18.45;;
60100;SDS011;45978;53.646;55.930;2022-09-03T02:28:32;33.10;;;18.63;;
60100;SDS011;45978;53.646;55.930;2022-09-03T02:29:34;30.45;;;18.10;;
60100;SDS011;45978;53.646;55.930;2022-09-03T02:30:35;31.80;;;18.38;;
60100;SDS011;45978;53.646;55.930;2022-09-03T02:31:38;33.67;;;18.38;;
60100;SDS011;45978;53.646;55.930;2022-09-03T02:32:39;39.17;;;18.48;;
60100;SDS011;45978;53.646;55.930;2022-09-03T02:33:41;34.70;;;18.90;;
60100;SDS011;45978;53.646;55.930;2022-09-03T02:34:45;32.60;;;18.65;;
60100;SDS011;45978;53.646;55.930;2022-09-03T02:35:46;32.65;;;18.45;;
60100;SDS011;45978;53.646;55.930;2022-09-03T02:36:48;35.00;;;18.52;;
60100;SDS011;45978;53.646;55.930;2022-09-03T02:37:50;32.15;;;17.58;;
60100;SDS011;45978;53.646;55.930;2022-09-03T02:38:52;29.05;;;18.17;;
60100;SDS011;45978;53.646;55.930;2022-09-03T02:39:53;26.98;;;18.58;;
60100;SDS011;45978;53.646;55.930;2022-09-03T02:40:55;30.25;;;18.42;;
60100;SDS011;45978;53.646;55.930;2022-09-03T02:41:56;27.65;;;17.60;;
60100;SDS011;45978;53.646;55.930;2022-09-03T02:42:58;30.90;;;18.90;;
60100;SDS011;45978;53.646;55.930;2022-09-03T02:44:06;26.77;;;17.80;;
60100;SDS011;45978;53.646;55.930;2022-09-03T02:45:30;25.02;;;17.30;;
60100;SDS011;45978;53.646;55.930;2022-09-03T02:46:35;38.10;;;17.85;;
60100;SDS011;45978;53.646;55.930;2022-09-03T02:47:40;57.95;;;18.17;;
60100;SDS011;45978;53.646;55.930;2022-09-03T02:48:45;31.02;;;18.10;;
60100;SDS011;45978;53.646;55.930;2022-09-03T02:49:47;30.05;;;18.58;;
60100;SDS011;45978;53.646;55.930;2022-09-03T02:50:48;26.65;;;17.83;;
60100;SDS011;45978;53.646;55.930;2022-09-03T02:51:49;27.85;;;17.38;;
60100;SDS011;45978;53.646;55.930;2022-09-03T02:52:51;21.20;;;17.38;;
60100;SDS011;45978;53.646;55.930;2022-09-03T02:53:52;32.88;;;18.33;;
60100;SDS011;45978;53.646;55.930;2022-09-03T02:54:53;29.90;;;17.85;;
60100;SDS011;45978;53.646;55.930;2022-09-03T02:55:58;27.75;;;18.02;;
60100;SDS011;45978;53.646;55.930;2022-09-03T02:57:01;30.98;;;19.02;;
60100;SDS011;45978;53.646;55.930;2022-09-03T02:58:03;32.67;;;18.02;;
60100;SDS011;45978;53.646;55.930;2022-09-03T02:59:07;38.67;;;18.70;;
60100;SDS011;45978;53.646;55.930;2022-09-03T03:00:09;24.85;;;17.63;;
60100;SDS011;45978;53.646;55.930;2022-09-03T03:01:11;35.00;;;18.17;;
60100;SDS011;45978;53.646;55.930;2022-09-03T03:02:12;27.30;;;18.20;;
60100;SDS011;45978;53.646;55.930;2022-09-03T03:03:13;28.00;;;18.55;;
60100;SDS011;45978;53.646;55.930;2022-09-03T03:04:14;37.85;;;17.63;;
60100;SDS011;45978;53.646;55.930;2022-09-03T03:05:17;31.25;;;18.52;;
60100;SDS011;45978;53.646;55.930;2022-09-03T03:06:26;30.15;;;16.92;;
60100;SDS011;45978;53.646;55.930;2022-09-03T03:07:29;31.38;;;18.05;;
60100;SDS011;45978;53.646;55.930;2022-09-03T03:08:36;38.67;;;18.17;;
60100;SDS011;45978;53.646;55.930;2022-09-03T03:09:38;26.20;;;17.60;;
60100;SDS011;45978;53.646;55.930;2022-09-03T03:10:42;30.92;;;17.55;;
60100;SDS011;45978;53.646;55.930;2022-09-03T03:11:46;24.02;;;17.52;;
60100;SDS011;45978;53.646;55.930;2022-09-03T03:12:50;25.63;;;16.92;;
60100;SDS011;45978;53.646;55.930;2022-09-03T03:13:51;36.67;;;19.67;;
60100;SDS011;45978;53.646;55.930;2022-09-03T03:14:53;25.70;;;16.98;;
60100;SDS011;45978;53.646;55.930;2022-09-03T03:15:55;22.33;;;17.13;;
60100;SDS011;45978;53.646;55.930;2022-09-03T03:17:00;30.27;;;17.70;;
60100;SDS011;45978;53.646;55.930;2022-09-03T03:18:01;27.30;;;18.17;;
60100;SDS011;45978;53.646;55.930;2022-09-03T03:19:02;31.15;;;19.55;;
60100;SDS011;45978;53.646;55.930;2022-09-03T03:20:03;21.48;;;17.65;;
60100;SDS011;45978;53.646;55.930;2022-09-03T03:21:11;22.15;;;17.15;;
60100;SDS011;45978;53.646;55.930;2022-09-03T03:22:14;27.17;;;16.70;;
60100;SDS011;45978;53.646;55.930;2022-09-03T03:23:15;25.15;;;16.30;;
60100;SDS011;45978;53.646;55.930;2022-09-03T03:24:17;22.42;;;16.73;;
60100;SDS011;45978;53.646;55.930;2022-09-03T03:25:18;23.02;;;17.23;;
60100;SDS011;45978;53.646;55.930;2022-09-03T03:26:19;38.85;;;18.48;;
60100;SDS011;45978;53.646;55.930;2022-09-03T03:27:25;27.42;;;16.90;;
60100;SDS011;45978;53.646;55.930;2022-09-03T03:28:27;31.75;;;20.17;;
60100;SDS011;45978;53.646;55.930;2022-09-03T03:29:28;32.90;;;20.98;;
60100;SDS011;45978;53.646;55.930;2022-09-03T03:30:30;33.03;;;22.08;;
60100;SDS011;45978;53.646;55.930;2022-09-03T03:31:32;26.90;;;20.10;;
60100;SDS011;45978;53.646;55.930;2022-09-03T03:32:36;36.20;;;20.58;;
60100;SDS011;45978;53.646;55.930;2022-09-03T03:33:38;25.75;;;18.25;;
60100;SDS011;45978;53.646;55.930;2022-09-03T03:34:39;29.58;;;18.88;;
60100;SDS011;45978;53.646;55.930;2022-09-03T03:35:41;23.95;;;19.67;;
60100;SDS011;45978;53.646;55.930;2022-09-03T03:36:42;28.20;;;19.10;;
60100;SDS011;45978;53.646;55.930;2022-09-03T03:37:43;32.67;;;18.90;;
60100;SDS011;45978;53.646;55.930;2022-09-03T03:38:44;21.85;;;18.75;;
60100;SDS011;45978;53.646;55.930;2022-09-03T03:39:46;31.40;;;20.33;;
60100;SDS011;45978;53.646;55.930;2022-09-03T03:40:47;27.55;;;17.77;;
60100;SDS011;45978;53.646;55.930;2022-09-03T03:41:49;37.67;;;18.88;;
60100;SDS011;45978;53.646;55.930;2022-09-03T03:42:52;24.90;;;16.92;;
60100;SDS011;45978;53.646;55.930;2022-09-03T03:43:54;28.27;;;17.55;;
60100;SDS011;45978;53.646;55.930;2022-09-03T03:44:57;31.75;;;16.88;;
60100;SDS011;45978;53.646;55.930;2022-09-03T03:45:58;25.42;;;17.77;;
60100;SDS011;45978;53.646;55.930;2022-09-03T03:46:59;28.35;;;17.38;;
60100;SDS011;45978;53.646;55.930;2022-09-03T03:48:02;28.95;;;18.52;;
60100;SDS011;45978;53.646;55.930;2022-09-03T03:49:03;31.90;;;18.33;;
60100;SDS011;45978;53.646;55.930;2022-09-03T03:50:07;32.65;;;18.35;;
60100;SDS011;45978;53.646;55.930;2022-09-03T03:51:08;25.88;;;18.60;;
60100;SDS011;45978;53.646;55.930;2022-09-03T03:52:10;35.88;;;17.67;;
60100;SDS011;45978;53.646;55.930;2022-09-03T03:53:11;26.80;;;17.95;;
60100;SDS011;45978;53.646;55.930;2022-09-03T03:54:12;35.85;;;19.05;;
60100;SDS011;45978;53.646;55.930;2022-09-03T03:55:13;38.63;;;21.08;;
60100;SDS011;45978;53.646;55.930;2022-09-03T03:56:14;34.53;;;20.65;;
60100;SDS011;45978;53.646;55.930;2022-09-03T03:57:16;33.17;;;20.83;;
60100;SDS011;45978;53.646;55.930;2022-09-03T03:58:19;38.17;;;23.33;;
60100;SDS011;45978;53.646;55.930;2022-09-03T03:59:20;32.65;;;21.40;;
60100;SDS011;45978;53.646;55.930;2022-09-03T04:00:21;31.27;;;19.40;;
60100;SDS011;45978;53.646;55.930;2022-09-03T04:01:24;36.13;;;18.20;;
60100;SDS011;45978;53.646;55.930;2022-09-03T04:02:26;23.13;;;17.50;;
60100;SDS011;45978;53.646;55.930;2022-09-03T04:03:28;29.48;;;19.52;;
60100;SDS011;45978;53.646;55.930;2022-09-03T04:04:29;28.88;;;17.73;;
60100;SDS011;45978;53.646;55.930;2022-09-03T04:05:30;35.38;;;18.95;;
60100;SDS011;45978;53.646;55.930;2022-09-03T04:06:31;30.50;;;18.70;;
60100;SDS011;45978;53.646;55.930;2022-09-03T04:07:32;32.08;;;18.98;;
60100;SDS011;45978;53.646;55.930;2022-09-03T04:08:34;26.58;;;18.35;;
60100;SDS011;45978;53.646;55.930;2022-09-03T04:09:36;23.00;;;18.42;;
60100;SDS011;45978;53.646;55.930;2022-09-03T04:10:38;30.80;;;18.95;;
60100;SDS011;45978;53.646;55.930;2022-09-03T04:11:39;24.25;;;19.33;;
60100;SDS011;45978;53.646;55.930;2022-09-03T04:12:40;26.67;;;17.80;;
60100;SDS011;45978;53.646;55.930;2022-09-03T04:13:42;29.42;;;20.10;;
60100;SDS011;45978;53.646;55.930;2022-09-03T04:14:44;28.20;;;18.85;;
60100;SDS011;45978;53.646;55.930;2022-09-03T04:15:45;21.27;;;17.35;;
60100;SDS011;45978;53.646;55.930;2022-09-03T04:16:46;26.55;;;19.83;;
60100;SDS011;45978;53.646;55.930;2022-09-03T04:17:48;21.13;;;18.67;;
60100;SDS011;45978;53.646;55.930;2022-09-03T04:18:53;25.75;;;18.63;;
60100;SDS011;45978;53.646;55.930;2022-09-03T04:19:55;23.85;;;18.42;;
60100;SDS011;45978;53.646;55.930;2022-09-03T04:22:08;24.23;;;18.08;;
60100;SDS011;45978;53.646;55.930;2022-09-03T04:23:09;55.67;;;19.77;;
60100;SDS011;45978;53.646;55.930;2022-09-03T04:24:10;27.45;;;17.73;;
60100;SDS011;45978;53.646;55.930;2022-09-03T04:25:12;24.42;;;17.83;;
60100;SDS011;45978;53.646;55.930;2022-09-03T04:26:15;28.90;;;18.90;;
60100;SDS011;45978;53.646;55.930;2022-09-03T04:27:23;30.88;;;19.65;;
60100;SDS011;45978;53.646;55.930;2022-09-03T04:28:24;25.38;;;18.52;;
60100;SDS011;45978;53.646;55.930;2022-09-03T04:29:25;24.65;;;17.67;;
60100;SDS011;45978;53.646;55.930;2022-09-03T04:30:30;28.50;;;18.35;;
60100;SDS011;45978;53.646;55.930;2022-09-03T04:31:32;30.70;;;18.02;;
60100;SDS011;45978;53.646;55.930;2022-09-03T04:32:34;29.30;;;18.90;;
60100;SDS011;45978;53.646;55.930;2022-09-03T04:33:55;28.08;;;19.63;;
60100;SDS011;45978;53.646;55.930;2022-09-03T04:34:56;28.50;;;18.67;;
60100;SDS011;45978;53.646;55.930;2022-09-03T04:36:04;26.38;;;19.35;;
60100;SDS011;45978;53.646;55.930;2022-09-03T04:37:10;26.85;;;19.67;;
60100;SDS011;45978;53.646;55.930;2022-09-03T04:38:14;25.63;;;19.33;;
60100;SDS011;45978;53.646;55.930;2022-09-03T04:39:16;23.08;;;18.88;;
60100;SDS011;45978;53.646;55.930;2022-09-03T04:40:19;24.02;;;19.83;;
60100;SDS011;45978;53.646;55.930;2022-09-03T04:41:21;25.48;;;18.75;;
60100;SDS011;45978;53.646;55.930;2022-09-03T04:42:24;31.45;;;19.90;;
60100;SDS011;45978;53.646;55.930;2022-09-03T04:43:26;29.15;;;19.55;;
60100;SDS011;45978;53.646;55.930;2022-09-03T04:44:28;25.55;;;19.25;;
60100;SDS011;45978;53.646;55.930;2022-09-03T04:45:29;28.67;;;19.48;;
60100;SDS011;45978;53.646;55.930;2022-09-03T04:46:31;25.65;;;19.95;;
60100;SDS011;45978;53.646;55.930;2022-09-03T04:47:32;28.35;;;20.52;;
60100;SDS011;45978;53.646;55.930;2022-09-03T04:48:36;26.48;;;19.23;;
60100;SDS011;45978;53.646;55.930;2022-09-03T04:49:38;27.27;;;19.50;;
60100;SDS011;45978;53.646;55.930;2022-09-03T04:50:40;27.48;;;19.33;;
60100;SDS011;45978;53.646;55.930;2022-09-03T04:51:42;22.98;;;18.75;;
60100;SDS011;45978;53.646;55.930;2022-09-03T04:52:43;25.23;;;20.05;;
60100;SDS011;45978;53.646;55.930;2022-09-03T04:53:45;26.13;;;18.65;;
60100;SDS011;45978;53.646;55.930;2022-09-03T04:54:48;25.55;;;19.02;;
60100;SDS011;45978;53.646;55.930;2022-09-03T04:55:52;29.70;;;19.73;;
60100;SDS011;45978;53.646;55.930;2022-09-03T04:56:53;33.05;;;19.23;;
60100;SDS011;45978;53.646;55.930;2022-09-03T04:57:54;31.50;;;20.52;;
60100;SDS011;45978;53.646;55.930;2022-09-03T04:58:59;27.42;;;19.15;;
60100;SDS011;45978;53.646;55.930;2022-09-03T05:00:11;31.77;;;20.05;;
60100;SDS011;45978;53.646;55.930;2022-09-03T05:01:15;30.05;;;19.30;;
60100;SDS011;45978;53.646;55.930;2022-09-03T05:02:18;28.10;;;18.65;;
60100;SDS011;45978;53.646;55.930;2022-09-03T05:03:21;23.33;;;17.48;;
60100;SDS011;45978;53.646;55.930;2022-09-03T05:04:22;29.20;;;18.55;;
60100;SDS011;45978;53.646;55.930;2022-09-03T05:05:23;27.50;;;18.60;;
60100;SDS011;45978;53.646;55.930;2022-09-03T05:06:25;21.55;;;18.48;;
60100;SDS011;45978;53.646;55.930;2022-09-03T05:07:27;24.10;;;17.65;;
60100;SDS011;45978;53.646;55.930;2022-09-03T05:08:38;24.65;;;17.42;;
60100;SDS011;45978;53.646;55.930;2022-09-03T05:09:40;22.10;;;17.48;;
60100;SDS011;45978;53.646;55.930;2022-09-03T05:10:41;23.63;;;17.10;;
60100;SDS011;45978;53.646;55.930;2022-09-03T05:11:42;20.90;;;16.83;;
60100;SDS011;45978;53.646;55.930;2022-09-03T05:12:45;25.77;;;15.35;;
60100;SDS011;45978;53.646;55.930;2022-09-03T05:13:51;26.25;;;16.20;;
60100;SDS011;45978;53.646;55.930;2022-09-03T05:14:55;22.80;;;16.38;;
60100;SDS011;45978;53.646;55.930;2022-09-03T05:16:00;24.30;;;16.60;;
60100;SDS011;45978;53.646;55.930;2022-09-03T05:17:03;22.63;;;15.63;;
60100;SDS011;45978;53.646;55.930;2022-09-03T05:18:05;20.38;;;16.02;;
60100;SDS011;45978;53.646;55.930;2022-09-03T05:19:06;22.17;;;16.50;;
60100;SDS011;45978;53.646;55.930;2022-09-03T05:20:07;26.20;;;16.25;;
60100;SDS011;45978;53.646;55.930;2022-09-03T05:21:10;25.08;;;16.40;;
60100;SDS011;45978;53.646;55.930;2022-09-03T05:22:15;25.77;;;16.60;;
60100;SDS011;45978;53.646;55.930;2022-09-03T05:23:20;20.30;;;16.13;;
60100;SDS011;45978;53.646;55.930;2022-09-03T05:24:22;21.67;;;16.33;;
60100;SDS011;45978;53.646;55.930;2022-09-03T05:25:24;25.17;;;15.65;;
60100;SDS011;45978;53.646;55.930;2022-09-03T05:26:27;23.85;;;16.23;;
60100;SDS011;45978;53.646;55.930;2022-09-03T05:27:30;21.23;;;16.30;;
60100;SDS011;45978;53.646;55.930;2022-09-03T05:28:33;22.83;;;17.25;;
60100;SDS011;45978;53.646;55.930;2022-09-03T05:29:36;26.17;;;15.73;;
60100;SDS011;45978;53.646;55.930;2022-09-03T05:30:37;22.17;;;15.60;;
60100;SDS011;45978;53.646;55.930;2022-09-03T05:31:38;18.35;;;15.80;;
60100;SDS011;45978;53.646;55.930;2022-09-03T05:32:40;25.25;;;16.02;;
60100;SDS011;45978;53.646;55.930;2022-09-03T05:33:43;23.20;;;16.10;;
60100;SDS011;45978;53.646;55.930;2022-09-03T05:34:46;24.52;;;15.13;;
60100;SDS011;45978;53.646;55.930;2022-09-03T05:35:48;20.30;;;14.45;;
60100;SDS011;45978;53.646;55.930;2022-09-03T05:36:49;17.30;;;13.98;;
60100;SDS011;45978;53.646;55.930;2022-09-03T05:37:54;19.10;;;14.55;;
60100;SDS011;45978;53.646;55.930;2022-09-03T05:38:56;18.58;;;14.57;;
60100;SDS011;45978;53.646;55.930;2022-09-03T05:40:00;25.17;;;15.65;;
60100;SDS011;45978;53.646;55.930;2022-09-03T05:41:08;20.63;;;15.43;;
60100;SDS011;45978;53.646;55.930;2022-09-03T05:42:11;22.23;;;14.02;;
60100;SDS011;45978;53.646;55.930;2022-09-03T05:43:14;16.52;;;13.88;;
60100;SDS011;45978;53.646;55.930;2022-09-03T05:44:18;16.60;;;13.65;;
60100;SDS011;45978;53.646;55.930;2022-09-03T05:45:22;18.55;;;14.15;;
60100;SDS011;45978;53.646;55.930;2022-09-03T05:46:25;31.27;;;14.93;;
60100;SDS011;45978;53.646;55.930;2022-09-03T05:47:33;26.63;;;14.20;;
60100;SDS011;45978;53.646;55.930;2022-09-03T05:48:36;18.23;;;13.98;;
60100;SDS011;45978;53.646;55.930;2022-09-03T05:49:39;19.67;;;12.85;;
60100;SDS011;45978;53.646;55.930;2022-09-03T05:50:40;21.15;;;13.88;;
60100;SDS011;45978;53.646;55.930;2022-09-03T05:51:41;13.63;;;12.20;;
60100;SDS011;45978;53.646;55.930;2022-09-03T05:52:43;20.08;;;13.48;;
60100;SDS011;45978;53.646;55.930;2022-09-03T05:53:45;16.88;;;11.63;;
60100;SDS011;45978;53.646;55.930;2022-09-03T05:54:48;14.27;;;11.57;;
60100;SDS011;45978;53.646;55.930;2022-09-03T05:55:58;24.92;;;11.55;;
60100;SDS011;45978;53.646;55.930;2022-09-03T05:57:01;14.82;;;11.65;;
60100;SDS011;45978;53.646;55.930;2022-09-03T05:58:02;16.38;;;12.18;;
60100;SDS011;45978;53.646;55.930;2022-09-03T05:59:05;17.73;;;11.98;;
60100;SDS011;45978;53.646;55.930;2022-09-03T06:00:08;16.23;;;11.05;;
60100;SDS011;45978;53.646;55.930;2022-09-03T06:02:28;15.30;;;10.05;;
60100;SDS011;45978;53.646;55.930;2022-09-03T06:03:29;18.13;;;11.02;;
60100;SDS011;45978;53.646;55.930;2022-09-03T06:04:30;15.75;;;10.48;;
60100;SDS011;45978;53.646;55.930;2022-09-03T06:05:32;14.98;;;10.02;;
60100;SDS011;45978;53.646;55.930;2022-09-03T06:06:35;10.50;;;9.35;;
60100;SDS011;45978;53.646;55.930;2022-09-03T06:07:39;16.60;;;9.63;;
60100;SDS011;45978;53.646;55.930;2022-09-03T06:08:40;12.45;;;9.40;;
60100;SDS011;45978;53.646;55.930;2022-09-03T06:09:45;14.90;;;9.35;;
60100;SDS011;45978;53.646;55.930;2022-09-03T06:10:48;12.82;;;9.00;;
60100;SDS011;45978;53.646;55.930;2022-09-03T06:11:49;11.15;;;9.55;;
60100;SDS011;45978;53.646;55.930;2022-09-03T06:12:54;13.85;;;8.45;;
60100;SDS011;45978;53.646;55.930;2022-09-03T06:14:02;10.63;;;8.18;;
60100;SDS011;45978;53.646;55.930;2022-09-03T06:15:05;17.30;;;9.10;;
60100;SDS011;45978;53.646;55.930;2022-09-03T06:16:07;14.27;;;8.13;;
60100;SDS011;45978;53.646;55.930;2022-09-03T06:17:09;18.08;;;8.38;;
60100;SDS011;45978;53.646;55.930;2022-09-03T06:18:14;9.13;;;8.20;;
60100;SDS011;45978;53.646;55.930;2022-09-03T06:19:16;12.23;;;8.40;;
60100;SDS011;45978;53.646;55.930;2022-09-03T06:20:18;16.52;;;8.70;;
60100;SDS011;45978;53.646;55.930;2022-09-03T06:21:21;10.82;;;8.30;;
60100;SDS011;45978;53.646;55.930;2022-09-03T06:22:22;15.68;;;8.57;;
60100;SDS011;45978;53.646;55.930;2022-09-03T06:23:25;13.30;;;8.57;;
60100;SDS011;45978;53.646;55.930;2022-09-03T06:24:28;10.27;;;7.93;;
60100;SDS011;45978;53.646;55.930;2022-09-03T06:25:29;11.13;;;7.88;;
60100;SDS011;45978;53.646;55.930;2022-09-03T06:26:31;13.38;;;7.55;;
60100;SDS011;45978;53.646;55.930;2022-09-03T06:27:32;15.50;;;8.27;;
60100;SDS011;45978;53.646;55.930;2022-09-03T06:28:36;18.63;;;10.25;;
60100;SDS011;45978;53.646;55.930;2022-09-03T06:29:39;10.00;;;8.55;;
60100;SDS011;45978;53.646;55.930;2022-09-03T06:30:41;8.00;;;7.05;;
60100;SDS011;45978;53.646;55.930;2022-09-03T06:31:42;12.90;;;7.60;;
60100;SDS011;45978;53.646;55.930;2022-09-03T06:32:45;12.18;;;6.88;;
60100;SDS011;45978;53.646;55.930;2022-09-03T06:33:49;18.20;;;7.85;;
60100;SDS011;45978;53.646;55.930;2022-09-03T06:34:52;16.15;;;8.40;;
60100;SDS011;45978;53.646;55.930;2022-09-03T06:35:54;11.73;;;8.63;;
60100;SDS011;45978;53.646;55.930;2022-09-03T06:36:59;11.02;;;8.20;;
60100;SDS011;45978;53.646;55.930;2022-09-03T06:38:00;10.90;;;8.32;;
60100;SDS011;45978;53.646;55.930;2022-09-03T06:39:01;14.88;;;7.97;;
60100;SDS011;45978;53.646;55.930;2022-09-03T06:40:03;13.75;;;7.60;;
60100;SDS011;45978;53.646;55.930;2022-09-03T06:42:12;16.85;;;8.43;;
60100;SDS011;45978;53.646;55.930;2022-09-03T06:43:15;18.45;;;8.07;;
60100;SDS011;45978;53.646;55.930;2022-09-03T06:44:16;12.55;;;7.10;;
60100;SDS011;45978;53.646;55.930;2022-09-03T06:45:18;18.75;;;8.13;;
60100;SDS011;45978;53.646;55.930;2022-09-03T06:46:20;7.80;;;6.88;;
60100;SDS011;45978;53.646;55.930;2022-09-03T06:47:23;8.48;;;6.85;;
60100;SDS011;45978;53.646;55.930;2022-09-03T06:48:24;8.60;;;5.80;;
60100;SDS011;45978;53.646;55.930;2022-09-03T06:49:28;13.25;;;7.05;;
60100;SDS011;45978;53.646;55.930;2022-09-03T06:50:31;17.88;;;7.05;;
60100;SDS011;45978;53.646;55.930;2022-09-03T06:51:35;14.32;;;6.20;;
60100;SDS011;45978;53.646;55.930;2022-09-03T06:52:39;10.75;;;6.20;;
60100;SDS011;45978;53.646;55.930;2022-09-03T06:53:48;10.70;;;5.93;;
60100;SDS011;45978;53.646;55.930;2022-09-03T06:54:51;10.75;;;6.00;;
60100;SDS011;45978;53.646;55.930;2022-09-03T06:55:53;10.73;;;5.70;;
60100;SDS011;45978;53.646;55.930;2022-09-03T06:56:55;14.63;;;6.50;;
60100;SDS011;45978;53.646;55.930;2022-09-03T06:57:58;13.07;;;6.53;;
60100;SDS011;45978;53.646;55.930;2022-09-03T06:59:02;14.70;;;6.60;;
60100;SDS011;45978;53.646;55.930;2022-09-03T07:00:05;13.35;;;7.07;;
60100;SDS011;45978;53.646;55.930;2022-09-03T07:01:07;13.07;;;6.95;;
60100;SDS011;45978;53.646;55.930;2022-09-03T07:02:20;9.63;;;6.80;;
60100;SDS011;45978;53.646;55.930;2022-09-03T07:03:22;11.52;;;7.68;;
60100;SDS011;45978;53.646;55.930;2022-09-03T07:04:23;13.73;;;7.38;;
60100;SDS011;45978;53.646;55.930;2022-09-03T07:05:27;13.60;;;7.65;;
60100;SDS011;45978;53.646;55.930;2022-09-03T07:06:31;11.63;;;7.70;;
60100;SDS011;45978;53.646;55.930;2022-09-03T07:07:36;9.95;;;7.28;;
60100;SDS011;45978;53.646;55.930;2022-09-03T07:08:38;11.07;;;7.63;;
60100;SDS011;45978;53.646;55.930;2022-09-03T07:09:43;14.88;;;7.07;;
60100;SDS011;45978;53.646;55.930;2022-09-03T07:10:47;10.30;;;6.78;;
60100;SDS011;45978;53.646;55.930;2022-09-03T07:11:50;10.00;;;6.97;;
60100;SDS011;45978;53.646;55.930;2022-09-03T07:12:52;11.30;;;6.90;;